createdAt,value
2017-11-04T00:01:58.450Z,30.05
2017-11-04T00:04:25.968Z,37.30
2017-11-04T00:06:53.510Z,30.77
2017-11-04T00:09:21.366Z,29.67
2017-11-04T00:11:50.104Z,29.90
2017-11-04T00:14:18.398Z,30.47
2017-11-04T00:16:45.961Z,31.10
2017-11-04T00:19:14.231Z,27.73
2017-11-04T00:21:41.781Z,27.87
2017-11-04T00:24:13.003Z,31.63
2017-11-04T00:26:40.553Z,32.03
2017-11-04T00:29:08.027Z,30.48
2017-11-04T00:31:36.303Z,31.23
2017-11-04T00:34:05.559Z,34.22
2017-11-04T00:36:33.816Z,38.72
2017-11-04T00:39:01.277Z,46.23
2017-11-04T00:41:31.011Z,36.70
2017-11-04T00:43:58.790Z,37.20
2017-11-04T00:46:26.267Z,40.27
2017-11-04T00:48:54.391Z,42.33
2017-11-04T00:51:21.851Z,42.57
2017-11-04T00:53:53.797Z,35.00
2017-11-04T00:56:25.106Z,24.10
2017-11-04T00:58:52.599Z,35.67
2017-11-04T01:01:20.081Z,27.37
2017-11-04T01:03:49.644Z,25.73
2017-11-04T01:06:17.143Z,23.43
2017-11-04T01:08:44.610Z,23.70
2017-11-04T01:11:16.187Z,25.50
2017-11-04T01:13:43.761Z,25.85
2017-11-04T01:16:11.279Z,21.00
2017-11-04T01:18:38.791Z,29.67
2017-11-04T01:21:06.246Z,29.40
2017-11-04T01:23:34.805Z,28.63
2017-11-04T01:26:03.392Z,26.40
2017-11-04T01:28:30.888Z,39.72
2017-11-04T01:30:58.367Z,33.07
2017-11-04T01:33:25.870Z,28.60
2017-11-04T01:35:53.338Z,23.73
2017-11-04T01:38:22.514Z,26.30
2017-11-04T01:40:54.248Z,26.33
2017-11-04T01:43:22.677Z,23.27
2017-11-04T01:45:50.834Z,26.33
2017-11-04T01:48:17.840Z,25.95
2017-11-04T01:50:45.928Z,24.13
2017-11-04T01:53:16.956Z,28.30
2017-11-04T01:55:48.891Z,28.07
2017-11-04T01:58:16.407Z,34.83
2017-11-04T02:00:44.198Z,29.40
2017-11-04T02:03:13.412Z,32.33
2017-11-04T02:05:40.920Z,32.83
2017-11-04T02:08:09.239Z,34.77
2017-11-04T02:10:37.759Z,31.60
2017-11-04T02:13:05.250Z,32.75
2017-11-04T02:15:32.769Z,33.13
2017-11-04T02:18:01.465Z,26.58
2017-11-04T02:20:29.010Z,28.30
2017-11-04T02:22:56.502Z,27.37
2017-11-04T02:25:25.796Z,30.20
2017-11-04T02:27:54.147Z,28.25
2017-11-04T02:30:21.640Z,25.93
2017-11-04T02:32:50.820Z,24.37
2017-11-04T02:35:18.296Z,29.87
2017-11-04T02:37:45.833Z,28.20
2017-11-04T02:40:13.289Z,31.20
2017-11-04T02:42:40.770Z,33.60
2017-11-04T02:45:09.015Z,41.10
2017-11-04T02:47:36.480Z,34.60
2017-11-04T02:50:06.099Z,30.43
2017-11-04T02:52:33.559Z,33.87
2017-11-04T02:55:01.838Z,25.33
2017-11-04T02:57:29.333Z,25.30
2017-11-04T02:59:56.830Z,27.52
2017-11-04T03:02:25.087Z,25.53
2017-11-04T03:04:52.539Z,20.63
2017-11-04T03:07:20.006Z,22.37
2017-11-04T03:09:48.428Z,26.23
2017-11-04T03:12:15.877Z,30.37
2017-11-04T03:14:43.386Z,29.93
2017-11-04T03:17:10.872Z,22.80
2017-11-04T03:19:38.344Z,23.10
2017-11-04T03:22:06.220Z,24.97
2017-11-04T03:24:33.701Z,25.93
2017-11-04T03:27:02.901Z,25.13
2017-11-04T03:29:30.396Z,26.67
2017-11-04T03:31:57.877Z,29.50
2017-11-04T03:34:25.358Z,27.90
2017-11-04T03:36:53.437Z,27.20
2017-11-04T03:39:21.536Z,29.25
2017-11-04T03:41:49.840Z,31.93
2017-11-04T03:44:17.368Z,25.33
2017-11-04T03:46:46.549Z,31.60
2017-11-04T03:49:14.088Z,28.00
2017-11-04T03:51:42.359Z,27.13
2017-11-04T03:54:09.846Z,31.58
2017-11-04T03:56:37.326Z,26.27
2017-11-04T03:59:05.536Z,25.98
2017-11-04T04:01:33.036Z,20.63
2017-11-04T04:04:00.517Z,25.92
2017-11-04T04:06:27.996Z,27.02
2017-11-04T04:08:55.483Z,29.95
2017-11-04T04:11:23.020Z,24.17
2017-11-04T04:13:51.293Z,25.43
2017-11-04T04:16:18.980Z,26.00
2017-11-04T04:18:48.357Z,27.02
2017-11-04T04:21:16.660Z,31.80
2017-11-04T04:23:45.527Z,27.63
2017-11-04T04:26:13.970Z,38.30
2017-11-04T04:28:41.423Z,39.28
2017-11-04T04:31:08.908Z,42.03
2017-11-04T04:33:37.168Z,35.83
2017-11-04T04:36:05.404Z,35.13
2017-11-04T04:38:33.509Z,39.92
2017-11-04T04:41:00.976Z,40.43
2017-11-04T04:43:40.411Z,36.20
2017-11-04T04:46:07.922Z,27.40
2017-11-04T04:48:35.407Z,42.42
2017-11-04T04:51:02.907Z,40.20
2017-11-04T04:53:30.389Z,41.85
2017-11-04T04:55:58.571Z,39.67
2017-11-04T04:58:26.025Z,33.30
2017-11-04T05:00:53.506Z,28.12
2017-11-04T05:03:20.998Z,29.00
2017-11-04T05:05:50.476Z,29.90
2017-11-04T05:08:18.233Z,29.42
2017-11-04T05:10:45.797Z,33.37
2017-11-04T05:13:16.768Z,25.30
2017-11-04T05:15:45.020Z,27.13
2017-11-04T05:18:13.238Z,36.80
2017-11-04T05:20:40.720Z,45.70
2017-11-04T05:23:08.191Z,40.90
2017-11-04T05:25:36.369Z,46.28
2017-11-04T05:28:04.846Z,37.03
2017-11-04T05:30:32.349Z,33.77
2017-11-04T05:33:00.271Z,30.60
2017-11-04T05:35:27.771Z,35.37
2017-11-04T05:37:55.255Z,42.80
2017-11-04T05:40:23.692Z,53.97
2017-11-04T05:42:52.704Z,54.90
2017-11-04T05:45:21.907Z,38.07
2017-11-04T05:47:49.549Z,40.60
2017-11-04T05:50:17.142Z,43.47
2017-11-04T05:52:44.734Z,46.07
2017-11-04T05:55:12.200Z,44.87
2017-11-04T05:57:42.445Z,52.85
2017-11-04T06:00:14.572Z,50.27
2017-11-04T06:02:42.922Z,48.53
2017-11-04T06:05:10.412Z,51.23
2017-11-04T06:07:37.869Z,45.83
2017-11-04T06:10:07.543Z,53.22
2017-11-04T06:12:36.730Z,57.20
2017-11-04T06:15:04.207Z,55.47
2017-11-04T06:17:31.698Z,51.20
2017-11-04T06:19:59.154Z,67.67
2017-11-04T06:22:26.627Z,58.60
2017-11-04T06:24:54.124Z,68.37
2017-11-04T06:27:21.594Z,66.07
2017-11-04T06:29:53.254Z,64.78
2017-11-04T06:32:20.725Z,74.40
2017-11-04T06:34:49.020Z,62.63
2017-11-04T06:37:16.605Z,64.50
2017-11-04T06:39:45.780Z,64.03
2017-11-04T06:42:13.230Z,82.67
2017-11-04T06:44:44.367Z,71.93
2017-11-04T06:47:12.656Z,56.33
2017-11-04T06:49:40.115Z,70.15
2017-11-04T06:52:08.539Z,62.77
2017-11-04T06:54:36.043Z,75.13
2017-11-04T06:57:03.550Z,64.63
2017-11-04T06:59:31.031Z,65.70
2017-11-04T07:01:58.912Z,61.23
2017-11-04T07:04:26.461Z,62.62
2017-11-04T07:06:53.939Z,82.37
2017-11-04T07:09:22.227Z,68.73
2017-11-04T07:11:49.727Z,75.70
2017-11-04T07:14:18.178Z,88.67
2017-11-04T07:16:49.349Z,75.53
2017-11-04T07:19:17.788Z,79.57
2017-11-04T07:21:46.080Z,81.10
2017-11-04T07:24:13.556Z,81.40
2017-11-04T07:26:41.061Z,68.90
2017-11-04T07:29:08.580Z,83.33
2017-11-04T07:31:36.053Z,79.00
2017-11-04T07:34:03.536Z,70.00
2017-11-04T07:36:31.526Z,72.90
2017-11-04T07:38:59.988Z,62.90
2017-11-04T07:41:27.454Z,76.70
2017-11-04T07:43:54.975Z,65.00
2017-11-04T07:46:22.452Z,73.43
2017-11-04T07:48:50.011Z,75.43
2017-11-04T07:51:17.844Z,73.83
2017-11-04T07:53:46.430Z,74.97
2017-11-04T07:56:13.909Z,76.60
2017-11-04T07:58:41.385Z,77.67
2017-11-04T08:01:08.860Z,72.97
2017-11-04T08:03:36.370Z,73.10
2017-11-04T08:06:06.440Z,80.27
2017-11-04T08:08:33.916Z,74.53
2017-11-04T08:11:01.414Z,77.63
2017-11-04T08:13:29.496Z,77.13
2017-11-04T08:15:57.024Z,80.93
2017-11-04T08:18:26.049Z,74.77
2017-11-04T08:20:54.435Z,75.30
2017-11-04T08:23:21.946Z,81.50
2017-11-04T08:25:50.220Z,79.03
2017-11-04T08:28:17.724Z,71.10
2017-11-04T08:30:46.085Z,71.03
2017-11-04T08:33:14.103Z,74.53
2017-11-04T08:35:42.572Z,67.23
2017-11-04T08:38:10.232Z,69.57
2017-11-04T08:40:38.207Z,77.28
2017-11-04T08:43:05.876Z,64.83
2017-11-04T08:45:33.433Z,62.10
2017-11-04T08:48:01.029Z,66.07
2017-11-04T08:50:30.673Z,62.53
2017-11-04T08:52:58.195Z,64.97
2017-11-04T08:55:26.732Z,68.90
2017-11-04T08:57:54.236Z,67.47
2017-11-04T09:00:22.609Z,60.63
2017-11-04T09:02:50.148Z,58.65
2017-11-04T09:05:18.798Z,69.20
2017-11-04T09:07:47.340Z,68.50
2017-11-04T09:10:15.100Z,66.73
2017-11-04T09:12:42.572Z,66.97
2017-11-04T09:15:11.804Z,69.20
2017-11-04T09:17:39.469Z,60.87
2017-11-04T09:20:06.936Z,71.23
2017-11-04T09:22:34.463Z,57.90
2017-11-04T09:25:01.934Z,58.97
2017-11-04T09:27:29.390Z,60.83
2017-11-04T09:29:56.979Z,61.83
2017-11-04T09:32:25.447Z,48.72
2017-11-04T09:34:52.908Z,57.60
2017-11-04T09:37:20.396Z,53.03
2017-11-04T09:39:47.866Z,58.93
2017-11-04T09:42:15.487Z,48.47
2017-11-04T09:44:43.005Z,57.13
2017-11-04T09:47:10.507Z,55.28
2017-11-04T09:49:48.929Z,55.30
2017-11-04T09:52:16.751Z,49.80
2017-11-04T09:54:45.939Z,50.30
2017-11-04T09:57:13.516Z,53.03
2017-11-04T09:59:41.786Z,49.45
2017-11-04T10:02:10.696Z,46.53
2017-11-04T10:04:38.236Z,54.30
2017-11-04T10:07:06.517Z,54.00
2017-11-04T10:09:35.692Z,44.60
2017-11-04T10:12:03.183Z,52.50
2017-11-04T10:14:31.426Z,42.77
2017-11-04T10:16:59.475Z,44.42
2017-11-04T10:19:30.074Z,48.72
2017-11-04T10:21:57.564Z,54.37
2017-11-04T10:24:25.074Z,42.88
2017-11-04T10:26:54.276Z,52.97
2017-11-04T10:29:22.007Z,41.63
2017-11-04T10:31:49.506Z,48.20
2017-11-04T10:34:19.163Z,54.38
2017-11-04T10:36:47.538Z,44.67
2017-11-04T10:39:15.723Z,39.27
2017-11-04T10:41:43.777Z,47.50
2017-11-04T10:44:11.305Z,43.77
2017-11-04T10:46:39.644Z,41.03
2017-11-04T10:49:12.186Z,43.08
2017-11-04T10:51:39.809Z,41.03
2017-11-04T10:54:07.736Z,51.20
2017-11-04T10:56:35.299Z,45.40
2017-11-04T10:59:03.939Z,43.58
2017-11-04T11:01:31.467Z,47.73
2017-11-04T11:04:05.893Z,42.00
2017-11-04T11:06:34.363Z,41.78
2017-11-04T11:09:01.999Z,44.17
2017-11-04T11:11:29.544Z,43.45
2017-11-04T11:13:59.437Z,38.67
2017-11-04T11:16:26.943Z,42.30
2017-11-04T11:18:54.809Z,44.63
2017-11-04T11:21:22.324Z,41.37
2017-11-04T11:23:50.577Z,47.00
2017-11-04T11:26:18.099Z,38.80
2017-11-04T11:28:45.703Z,44.33
2017-11-04T11:31:13.940Z,47.58
2017-11-04T11:33:42.409Z,40.57
2017-11-04T11:36:10.783Z,45.60
2017-11-04T11:38:38.255Z,40.00
2017-11-04T11:41:05.779Z,44.83
2017-11-04T11:43:33.242Z,40.88
2017-11-04T11:46:02.977Z,42.50
2017-11-04T11:48:30.480Z,38.67
2017-11-04T11:51:01.287Z,38.83
2017-11-04T11:53:29.488Z,43.70
2017-11-04T11:55:57.548Z,38.70
2017-11-04T11:58:25.044Z,43.15
2017-11-04T12:00:53.588Z,40.20
2017-11-04T12:03:22.073Z,35.03
2017-11-04T12:05:49.601Z,41.40
2017-11-04T12:08:17.060Z,40.27
2017-11-04T12:10:44.557Z,36.70
2017-11-04T12:13:12.146Z,41.93
2017-11-04T12:15:39.680Z,34.22
2017-11-04T12:18:07.273Z,35.63
2017-11-04T12:20:35.267Z,34.42
2017-11-04T12:23:02.754Z,36.17
2017-11-04T12:25:30.315Z,33.10
2017-11-04T12:28:00.436Z,30.40
2017-11-04T12:30:27.935Z,35.63
2017-11-04T12:32:56.433Z,37.47
2017-11-04T12:35:27.759Z,39.00
2017-11-04T12:38:03.616Z,33.53
2017-11-04T12:40:32.008Z,37.25
2017-11-04T12:42:59.615Z,33.45
2017-11-04T12:45:27.130Z,33.47
2017-11-04T12:47:56.320Z,40.12
2017-11-04T12:50:24.617Z,33.65
2017-11-04T12:52:52.076Z,31.17
2017-11-04T12:55:19.620Z,32.43
2017-11-04T12:57:47.127Z,31.80
2017-11-04T13:00:15.975Z,30.73
2017-11-04T13:02:43.517Z,31.50
2017-11-04T13:05:10.975Z,32.30
2017-11-04T13:07:38.480Z,30.70
2017-11-04T13:10:05.985Z,30.70
2017-11-04T13:12:34.281Z,24.42
2017-11-04T13:15:03.053Z,27.00
2017-11-04T13:17:30.560Z,31.17
2017-11-04T13:19:58.031Z,27.50
2017-11-04T13:22:29.193Z,25.90
2017-11-04T13:24:57.313Z,28.40
2017-11-04T13:27:24.868Z,27.90
2017-11-04T13:29:54.056Z,29.20
2017-11-04T13:32:21.538Z,26.30
2017-11-04T13:34:49.552Z,25.23
2017-11-04T13:37:20.599Z,26.13
2017-11-04T13:39:49.006Z,35.20
2017-11-04T13:42:16.488Z,31.00
2017-11-04T13:44:44.076Z,31.05
2017-11-04T13:47:11.579Z,25.27
2017-11-04T13:49:39.040Z,24.55
2017-11-04T13:52:09.680Z,26.00
2017-11-04T13:54:37.152Z,22.73
2017-11-04T13:57:05.406Z,23.60
2017-11-04T13:59:33.687Z,27.30
2017-11-04T14:02:01.166Z,27.17
2017-11-04T14:04:28.625Z,27.93
2017-11-04T14:06:57.412Z,28.63
2017-11-04T14:09:25.039Z,26.77
2017-11-04T14:11:52.536Z,23.87
2017-11-04T14:14:20.056Z,25.40
2017-11-04T14:16:47.563Z,23.67
2017-11-04T14:19:15.062Z,20.67
2017-11-04T14:21:42.886Z,24.77
2017-11-04T14:24:10.875Z,26.30
2017-11-04T14:26:40.256Z,29.12
2017-11-04T14:29:07.784Z,24.33
2017-11-04T14:31:36.403Z,28.10
2017-11-04T14:34:03.986Z,25.73
2017-11-04T14:36:32.731Z,26.80
2017-11-04T14:39:02.120Z,32.97
2017-11-04T14:41:30.727Z,29.70
2017-11-04T14:43:58.279Z,23.77
2017-11-04T14:46:25.759Z,36.50
2017-11-04T14:48:53.299Z,26.58
2017-11-04T14:51:21.582Z,27.20
2017-11-04T14:53:49.836Z,33.45
2017-11-04T14:56:18.191Z,33.95
2017-11-04T14:58:46.002Z,29.97
2017-11-04T15:01:15.825Z,29.20
2017-11-04T15:03:43.544Z,29.80
2017-11-04T15:06:11.208Z,27.70
2017-11-04T15:08:40.875Z,34.45
2017-11-04T15:11:13.267Z,31.80
2017-11-04T15:13:41.342Z,28.67
2017-11-04T15:16:11.911Z,31.30
2017-11-04T15:18:40.397Z,30.20
2017-11-04T15:21:08.292Z,29.85
2017-11-04T15:23:35.813Z,30.88
2017-11-04T15:26:03.341Z,30.27
2017-11-04T15:28:31.613Z,29.07
2017-11-04T15:30:59.678Z,34.83
2017-11-04T15:33:27.276Z,28.90
2017-11-04T15:35:54.852Z,31.40
2017-11-04T15:38:22.319Z,26.60
2017-11-04T15:40:49.778Z,31.60
2017-11-04T15:43:17.296Z,32.35
2017-11-04T15:45:44.828Z,38.22
2017-11-04T15:48:14.111Z,47.67
2017-11-04T15:50:41.618Z,29.27
2017-11-04T15:53:09.090Z,31.63
2017-11-04T15:55:36.555Z,35.20
2017-11-04T15:58:04.054Z,37.03
2017-11-04T16:00:33.211Z,37.20
2017-11-04T16:03:01.123Z,39.63
2017-11-04T16:05:28.626Z,43.17
2017-11-04T16:07:57.801Z,41.27
2017-11-04T16:10:29.244Z,34.10
2017-11-04T16:12:58.233Z,40.17
2017-11-04T16:15:25.853Z,35.90
2017-11-04T16:17:53.335Z,35.30
2017-11-04T16:20:20.846Z,41.07
2017-11-04T16:22:49.252Z,35.13
2017-11-04T16:25:17.598Z,39.92
2017-11-04T16:27:45.186Z,48.63
2017-11-04T16:30:12.666Z,39.80
2017-11-04T16:32:40.198Z,39.33
2017-11-04T16:35:07.703Z,42.93
2017-11-04T16:37:35.828Z,39.80
2017-11-04T16:40:03.288Z,43.87
2017-11-04T16:42:30.778Z,41.20
2017-11-04T16:44:59.090Z,45.67
2017-11-04T16:47:26.763Z,40.20
2017-11-04T16:49:55.354Z,48.33
2017-11-04T16:52:22.813Z,44.63
2017-11-04T16:54:50.411Z,41.47
2017-11-04T16:57:21.567Z,47.27
2017-11-04T16:59:49.786Z,42.75
2017-11-04T17:02:17.266Z,49.13
2017-11-04T17:04:46.089Z,49.33
2017-11-04T17:07:14.322Z,46.53
2017-11-04T17:09:41.830Z,46.45
2017-11-04T17:12:13.644Z,42.47
2017-11-04T17:14:41.891Z,46.17
2017-11-04T17:17:09.731Z,48.72
2017-11-04T17:19:37.982Z,55.70
2017-11-04T17:22:05.656Z,53.30
2017-11-04T17:24:34.254Z,46.60
2017-11-04T17:27:05.831Z,47.42
2017-11-04T17:29:33.337Z,53.83
2017-11-04T17:32:00.798Z,50.73
2017-11-04T17:34:29.208Z,49.20
2017-11-04T17:36:56.703Z,51.13
2017-11-04T17:39:24.374Z,53.23
2017-11-04T17:41:51.846Z,58.10
2017-11-04T17:44:19.326Z,48.73
2017-11-04T17:46:46.831Z,58.00
2017-11-04T17:49:15.137Z,48.47
2017-11-04T17:51:43.691Z,45.97
2017-11-04T17:54:11.238Z,48.97
2017-11-04T17:56:38.996Z,53.67
2017-11-04T17:59:08.192Z,48.30
2017-11-04T18:01:35.695Z,50.67
2017-11-04T18:04:03.175Z,47.15
2017-11-04T18:06:32.095Z,50.80
2017-11-04T18:08:59.570Z,54.23
2017-11-04T18:11:31.568Z,50.40
2017-11-04T18:13:59.032Z,51.97
2017-11-04T18:16:27.236Z,48.90
2017-11-04T18:18:54.799Z,53.27
2017-11-04T18:21:22.344Z,52.33
2017-11-04T18:23:49.880Z,56.88
2017-11-04T18:26:18.039Z,54.53
2017-11-04T18:28:57.878Z,49.17
2017-11-04T18:31:25.369Z,52.30
2017-11-04T18:33:52.910Z,53.77
2017-11-04T18:36:22.516Z,55.40
2017-11-04T18:38:50.375Z,57.10
2017-11-04T18:41:17.834Z,54.60
2017-11-04T18:43:45.368Z,53.97
2017-11-04T18:46:13.746Z,51.33
2017-11-04T18:48:42.614Z,61.20
2017-11-04T18:51:10.094Z,64.33
2017-11-04T18:53:37.662Z,53.67
2017-11-04T18:56:05.126Z,48.77
2017-11-04T18:58:32.762Z,57.17
2017-11-04T19:01:01.240Z,56.90
2017-11-04T19:03:28.755Z,55.97
2017-11-04T19:05:56.331Z,59.20
2017-11-04T19:08:24.218Z,49.08
2017-11-04T19:10:51.741Z,50.23
2017-11-04T19:13:22.294Z,58.00
2017-11-04T19:15:49.787Z,56.47
2017-11-04T19:18:17.283Z,61.77
2017-11-04T19:20:45.265Z,57.25
2017-11-04T19:23:12.776Z,58.80
2017-11-04T19:25:40.281Z,59.17
2017-11-04T19:28:07.767Z,62.80
2017-11-04T19:30:35.320Z,59.67
2017-11-04T19:33:02.976Z,61.20
2017-11-04T19:35:30.634Z,59.83
2017-11-04T19:37:59.663Z,79.65
2017-11-04T19:40:27.278Z,57.78
2017-11-04T19:43:01.988Z,53.10
2017-11-04T19:45:30.367Z,77.15
2017-11-04T19:47:59.615Z,62.07
2017-11-04T19:50:27.835Z,53.10
2017-11-04T19:52:55.380Z,61.23
2017-11-04T19:55:22.911Z,56.13
2017-11-04T19:57:50.467Z,53.25
2017-11-04T20:00:18.901Z,53.85
2017-11-04T20:02:46.577Z,49.27
2017-11-04T20:05:15.453Z,48.47
2017-11-04T20:07:43.615Z,45.80
2017-11-04T20:10:11.161Z,49.97
2017-11-04T20:12:38.653Z,52.30
2017-11-04T20:15:06.964Z,49.40
2017-11-04T20:17:35.275Z,50.33
2017-11-04T20:20:03.141Z,46.90
2017-11-04T20:22:30.647Z,44.27
2017-11-04T20:24:58.271Z,47.40
2017-11-04T20:27:25.809Z,54.50
2017-11-04T20:29:53.380Z,50.93
2017-11-04T20:32:22.945Z,50.50
2017-11-04T20:34:50.945Z,53.87
2017-11-04T20:37:18.922Z,51.78
2017-11-04T20:39:47.783Z,44.47
2017-11-04T20:42:15.379Z,47.70
2017-11-04T20:44:47.607Z,41.80
2017-11-04T20:47:15.666Z,47.78
2017-11-04T20:49:43.239Z,47.65
2017-11-04T20:52:12.474Z,48.67
2017-11-04T20:54:40.054Z,43.80
2017-11-04T20:57:07.621Z,45.57
2017-11-04T20:59:36.083Z,42.97
2017-11-04T21:02:03.557Z,41.47
2017-11-04T21:04:31.064Z,49.17
2017-11-04T21:06:58.617Z,43.83
2017-11-04T21:09:26.923Z,46.13
2017-11-04T21:11:55.533Z,50.12
2017-11-04T21:14:23.065Z,44.87
2017-11-04T21:16:50.561Z,45.10
2017-11-04T21:19:18.144Z,42.73
2017-11-04T21:21:46.505Z,39.73
2017-11-04T21:24:15.503Z,41.20
2017-11-04T21:26:43.041Z,43.23
2017-11-04T21:29:11.979Z,42.67
2017-11-04T21:31:40.293Z,45.87
2017-11-04T21:34:07.766Z,45.38
2017-11-04T21:36:35.317Z,41.73
2017-11-04T21:39:04.840Z,39.30
2017-11-04T21:41:33.075Z,42.83
2017-11-04T21:44:00.620Z,49.05
2017-11-04T21:46:28.807Z,47.07
2017-11-04T21:48:56.316Z,48.13
2017-11-04T21:51:23.926Z,43.50
2017-11-04T21:53:52.142Z,40.22
2017-11-04T21:56:19.644Z,43.67
2017-11-04T21:58:47.863Z,39.64
2017-11-04T22:01:15.420Z,42.72
2017-11-04T22:03:42.900Z,43.37
2017-11-04T22:06:10.439Z,42.50
2017-11-04T22:08:38.112Z,65.27
2017-11-04T22:11:05.660Z,44.80
2017-11-04T22:13:33.426Z,40.58
2017-11-04T22:16:01.707Z,46.95
2017-11-04T22:18:29.325Z,46.00
2017-11-04T22:20:57.431Z,43.03
2017-11-04T22:23:26.487Z,43.80
2017-11-04T22:25:54.054Z,42.63
2017-11-04T22:28:22.382Z,39.28
2017-11-04T22:30:53.030Z,37.60
2017-11-04T22:33:21.057Z,35.70
2017-11-04T22:35:48.604Z,36.55
2017-11-04T22:38:16.918Z,41.23
2017-11-04T22:40:44.468Z,41.00
2017-11-04T22:43:11.995Z,39.27
2017-11-04T22:45:45.136Z,40.78
2017-11-04T22:48:12.640Z,45.85
2017-11-04T22:50:41.159Z,41.53
2017-11-04T22:53:08.728Z,42.00
2017-11-04T22:55:36.219Z,37.45
2017-11-04T22:58:03.870Z,34.50
2017-11-04T23:00:31.589Z,36.08
2017-11-04T23:03:00.787Z,44.65
2017-11-04T23:05:29.044Z,38.20
2017-11-04T23:07:56.561Z,41.83
2017-11-04T23:10:24.847Z,36.60
2017-11-04T23:12:52.371Z,33.90
2017-11-04T23:15:20.360Z,43.58
2017-11-04T23:17:47.878Z,40.80
2017-11-04T23:20:15.395Z,37.85
2017-11-04T23:22:43.818Z,38.03
2017-11-04T23:25:12.964Z,36.90
2017-11-04T23:27:40.508Z,34.10
2017-11-04T23:30:08.288Z,37.00
2017-11-04T23:32:35.761Z,32.10
2017-11-04T23:35:03.254Z,37.83
2017-11-04T23:37:31.543Z,34.57
2017-11-04T23:39:59.825Z,36.10
2017-11-04T23:42:28.470Z,38.38
2017-11-04T23:44:55.950Z,35.53
2017-11-04T23:47:26.936Z,38.40
2017-11-04T23:49:54.450Z,35.27
2017-11-04T23:52:25.006Z,34.38
2017-11-04T23:54:53.262Z,33.80
2017-11-04T23:57:20.888Z,28.83
2017-11-04T23:59:48.876Z,27.37
